Frankfort, Indiana
Current Conditions -  °F | °C
As of 8:35 AM on Thursday 23 Oct 2014 (Local Time) from KTYQ Reporting Station
Moderate Fog Moderate Fog  
Wind Chill: 31°   Ceiling: Unl
Heat Index: 31°   Visibility: 0mi
Dew Point: 29°   Wind: 0mph
Humidity: 92%   Direction: NA
Pressure: 30.25"   Gusts: NA
Location:  40.28°N, 86.51°W
Report Text: KTYQ 231235Z AUTO 00000KT M1/4SM FZFG VV000 00/M01 A3025 RMK AO2 T10031015
Loading
Personal Weather Stations






























Interactive Weather Map
Tropical Storm Tracking
New forecast layout! Learn more

10-Day Weather Forecast

Advertisements
Track Severe Weather on mobile